createdAt,value
2022-08-11T00:00:50.103Z,19.74
2022-08-11T00:04:52.193Z,19.71
2022-08-11T00:08:55.815Z,19.60
2022-08-11T00:13:03.242Z,19.68
2022-08-11T00:17:08.862Z,18.90
2022-08-11T00:21:12.242Z,19.06
2022-08-11T00:25:18.022Z,19.27
2022-08-11T00:29:21.470Z,19.29
2022-08-11T00:33:44.469Z,19.33
2022-08-11T00:37:54.531Z,19.27
2022-08-11T00:42:24.184Z,19.21
2022-08-11T00:46:25.600Z,19.27
2022-08-11T00:50:53.233Z,19.20
2022-08-11T00:54:57.919Z,19.07
2022-08-11T00:59:46.694Z,18.95
2022-08-11T01:04:24.776Z,18.97
2022-08-11T01:09:06.682Z,18.88
2022-08-11T01:13:26.932Z,18.90
2022-08-11T01:17:57.911Z,18.81
2022-08-11T01:22:17.918Z,18.72
2022-08-11T01:26:28.433Z,18.67
2022-08-11T01:31:06.510Z,18.45
2022-08-11T01:35:45.922Z,18.54
2022-08-11T01:40:15.266Z,18.48
2022-08-11T01:44:41.045Z,18.47
2022-08-11T01:48:56.981Z,18.43
2022-08-11T01:53:22.829Z,18.41
2022-08-11T01:58:01.041Z,18.31
2022-08-11T02:02:21.606Z,18.25
2022-08-11T02:06:58.205Z,18.16
2022-08-11T02:11:30.388Z,18.19
2022-08-11T02:15:39.371Z,18.19
2022-08-11T02:20:09.442Z,18.11
2022-08-11T02:24:34.789Z,17.97
2022-08-11T02:29:18.729Z,18.01
2022-08-11T02:33:30.381Z,17.93
2022-08-11T02:37:31.777Z,17.81
2022-08-11T02:42:35.115Z,17.83
2022-08-11T02:46:56.987Z,17.60
2022-08-11T02:51:30.227Z,17.69
2022-08-11T02:55:57.915Z,17.45
2022-08-11T03:00:10.961Z,17.44
2022-08-11T03:04:23.173Z,17.10
2022-08-11T03:08:52.409Z,17.36
2022-08-11T03:13:37.938Z,17.36
2022-08-11T03:17:58.900Z,17.22
2022-08-11T03:22:24.997Z,17.25
2022-08-11T03:26:38.590Z,16.84
2022-08-11T03:30:48.529Z,17.09
2022-08-11T03:34:51.465Z,17.10
2022-08-11T03:39:20.143Z,16.93
2022-08-11T03:43:58.674Z,17.01
2022-08-11T03:48:22.931Z,16.89
2022-08-11T03:52:59.782Z,16.99
2022-08-11T03:57:21.064Z,17.02
2022-08-11T04:02:19.327Z,16.97
2022-08-11T04:06:26.296Z,16.93
2022-08-11T04:11:04.593Z,16.90
2022-08-11T04:15:46.621Z,16.95
2022-08-11T04:19:53.815Z,16.89
2022-08-11T04:24:38.308Z,16.92
2022-08-11T04:28:58.985Z,16.96
2022-08-11T04:33:23.323Z,16.90
2022-08-11T04:37:58.985Z,16.98
2022-08-11T04:42:53.286Z,16.87
2022-08-11T04:48:04.574Z,17.00
2022-08-11T04:52:37.540Z,16.83
2022-08-11T04:57:03.566Z,16.65
2022-08-11T05:01:41.363Z,16.74
2022-08-11T05:06:20.326Z,16.85
2022-08-11T05:10:40.015Z,17.14
2022-08-11T05:15:11.369Z,17.24
2022-08-11T05:19:37.189Z,17.23
2022-08-11T05:24:07.640Z,17.33
2022-08-11T05:28:31.583Z,17.46
2022-08-11T05:33:01.773Z,17.61
2022-08-11T05:37:29.566Z,17.93
2022-08-11T05:41:50.732Z,18.03
2022-08-11T05:46:36.918Z,18.15
2022-08-11T05:50:58.771Z,18.16
2022-08-11T05:55:23.675Z,18.51
2022-08-11T05:59:28.440Z,18.57
2022-08-11T06:03:32.812Z,18.70
2022-08-11T06:07:49.274Z,18.92
2022-08-11T06:11:52.495Z,19.05
2022-08-11T06:15:55.866Z,19.18
2022-08-11T06:20:07.637Z,19.23
2022-08-11T06:24:14.683Z,19.16
2022-08-11T06:28:20.999Z,19.53
2022-08-11T06:32:32.484Z,19.68
2022-08-11T06:36:57.941Z,19.85
2022-08-11T06:41:23.453Z,20.09
2022-08-11T06:45:31.061Z,20.23
2022-08-11T06:49:55.468Z,20.30
2022-08-11T06:54:05.182Z,20.59
2022-08-11T06:58:35.044Z,20.77
2022-08-11T07:02:53.224Z,20.98
2022-08-11T07:07:41.225Z,21.16
2022-08-11T07:12:17.217Z,21.33
2022-08-11T07:16:26.671Z,21.58
2022-08-11T07:20:49.421Z,21.76
2022-08-11T07:25:21.672Z,21.82
2022-08-11T07:29:23.393Z,22.04
2022-08-11T07:34:07.618Z,22.17
2022-08-11T07:38:11.646Z,22.17
2022-08-11T07:42:15.811Z,22.33
2022-08-11T07:46:36.907Z,22.62
2022-08-11T07:51:01.404Z,22.83
2022-08-11T07:55:08.389Z,23.21
2022-08-11T07:59:59.912Z,23.28
2022-08-11T08:04:09.944Z,23.42
2022-08-11T08:08:33.195Z,23.45
2022-08-11T08:12:54.722Z,23.90
2022-08-11T08:17:16.653Z,24.25
2022-08-11T08:21:18.189Z,24.81
2022-08-11T08:25:20.061Z,24.70
2022-08-11T08:29:40.574Z,25.12
2022-08-11T08:33:42.922Z,25.29
2022-08-11T08:37:47.058Z,25.62
2022-08-11T08:41:58.124Z,25.11
2022-08-11T08:46:00.333Z,25.15
2022-08-11T08:50:16.892Z,25.43
2022-08-11T08:54:21.819Z,25.56
2022-08-11T08:58:24.846Z,26.07
2022-08-11T09:02:34.562Z,26.47
2022-08-11T09:06:40.686Z,26.66
2022-08-11T09:10:42.316Z,26.98
2022-08-11T09:15:05.963Z,26.51
2022-08-11T09:19:08.721Z,26.76
2022-08-11T09:24:07.650Z,26.97
2022-08-11T09:27:53.177Z,27.31
2022-08-11T09:31:56.011Z,26.84
2022-08-11T09:35:58.269Z,27.22
2022-08-11T09:40:18.610Z,27.54
2022-08-11T09:44:40.339Z,27.30
2022-08-11T09:48:47.163Z,27.65
2022-08-11T09:53:16.783Z,27.95
2022-08-11T09:57:31.483Z,28.16
2022-08-11T10:01:42.239Z,28.69
2022-08-11T10:06:34.039Z,28.80
2022-08-11T10:10:39.094Z,28.61
2022-08-11T10:15:08.048Z,29.39
2022-08-11T10:19:11.135Z,29.72
2022-08-11T10:23:32.184Z,29.25
2022-08-11T10:28:16.779Z,28.65
2022-08-11T10:32:15.726Z,29.05
2022-08-11T10:36:20.288Z,29.43
2022-08-11T10:40:23.571Z,29.89
2022-08-11T10:44:25.385Z,29.52
2022-08-11T10:48:29.475Z,29.35
2022-08-11T10:52:50.020Z,29.59
2022-08-11T10:57:12.825Z,29.56
2022-08-11T11:01:18.291Z,30.66
2022-08-11T11:05:29.008Z,30.74
2022-08-11T11:09:39.620Z,30.75
2022-08-11T11:13:59.637Z,30.83
2022-08-11T11:18:09.570Z,29.67
2022-08-11T11:22:33.428Z,30.02
2022-08-11T11:27:28.505Z,31.28
2022-08-11T11:31:48.718Z,32.07
2022-08-11T11:36:17.151Z,31.68
2022-08-11T11:40:21.448Z,31.64
2022-08-11T11:44:31.120Z,32.48
2022-08-11T11:48:33.767Z,32.58
2022-08-11T11:52:36.301Z,32.65
2022-08-11T11:56:38.715Z,32.95
2022-08-11T12:00:59.684Z,33.46
2022-08-11T12:05:02.070Z,33.39
2022-08-11T12:09:05.163Z,33.12
2022-08-11T12:13:25.202Z,32.60
2022-08-11T12:17:26.980Z,31.80
2022-08-11T12:21:30.125Z,32.30
2022-08-11T12:26:26.447Z,30.23
2022-08-11T12:30:29.436Z,31.39
2022-08-11T12:34:31.142Z,31.49
2022-08-11T12:38:34.998Z,32.70
2022-08-11T12:43:00.724Z,32.48
2022-08-11T12:47:06.186Z,31.76
2022-08-11T12:52:11.442Z,32.49
2022-08-11T12:56:27.450Z,33.08
2022-08-11T13:00:49.400Z,32.25
2022-08-11T13:04:54.060Z,33.40
2022-08-11T13:09:01.001Z,33.76
2022-08-11T13:13:54.989Z,33.29
2022-08-11T13:17:43.680Z,33.51
2022-08-11T13:21:47.534Z,33.83
2022-08-11T13:25:49.779Z,32.50
2022-08-11T13:30:12.372Z,33.21
2022-08-11T13:34:16.357Z,33.51
2022-08-11T13:38:22.173Z,34.43
2022-08-11T13:42:23.683Z,34.55
2022-08-11T13:46:27.289Z,34.95
2022-08-11T13:50:51.302Z,34.72
2022-08-11T13:54:53.378Z,35.57
2022-08-11T13:58:56.163Z,35.18
2022-08-11T14:02:59.153Z,34.46
2022-08-11T14:07:06.567Z,33.57
2022-08-11T14:12:23.071Z,33.53
2022-08-11T14:15:50.650Z,35.14
2022-08-11T14:19:53.621Z,34.74
2022-08-11T14:23:55.323Z,35.11
2022-08-11T14:28:32.066Z,35.21
2022-08-11T14:32:20.978Z,34.92
2022-08-11T14:36:25.602Z,34.16
2022-08-11T14:40:45.698Z,35.02
2022-08-11T14:45:09.415Z,35.39
2022-08-11T14:49:12.710Z,35.15
2022-08-11T14:53:16.088Z,35.40
2022-08-11T14:57:54.357Z,35.85
2022-08-11T15:02:02.504Z,36.70
2022-08-11T15:06:05.329Z,36.42
2022-08-11T15:10:13.146Z,36.91
2022-08-11T15:14:35.770Z,34.96
2022-08-11T15:18:37.929Z,34.62
2022-08-11T15:22:57.897Z,35.35
2022-08-11T15:27:20.196Z,35.57
2022-08-11T15:31:27.723Z,35.56
2022-08-11T15:35:49.417Z,36.84
2022-08-11T15:40:31.586Z,35.36
2022-08-11T15:45:02.659Z,35.58
2022-08-11T15:49:12.335Z,36.48
2022-08-11T15:53:34.716Z,34.61
2022-08-11T15:57:55.784Z,34.35
2022-08-11T16:02:31.004Z,33.86
2022-08-11T16:06:35.125Z,34.13
2022-08-11T16:10:38.051Z,32.19
2022-08-11T16:15:14.703Z,32.53
2022-08-11T16:19:23.201Z,32.77
2022-08-11T16:23:28.239Z,31.68
2022-08-11T16:27:34.043Z,32.04
2022-08-11T16:31:38.152Z,32.25
2022-08-11T16:35:59.163Z,32.72
2022-08-11T16:40:01.120Z,33.08
2022-08-11T16:44:32.937Z,31.34
2022-08-11T16:48:41.550Z,30.77
2022-08-11T16:52:43.424Z,31.16
2022-08-11T16:56:49.168Z,32.49
2022-08-11T17:00:51.887Z,33.04
2022-08-11T17:05:16.244Z,32.47
2022-08-11T17:09:41.513Z,32.04
2022-08-11T17:13:56.572Z,32.85
2022-08-11T17:18:00.601Z,32.84
2022-08-11T17:22:22.152Z,33.59
2022-08-11T17:26:49.728Z,31.80
2022-08-11T17:31:20.001Z,32.46
2022-08-11T17:35:31.024Z,31.50
2022-08-11T17:39:33.654Z,32.63
2022-08-11T17:43:55.141Z,32.58
2022-08-11T17:48:17.510Z,31.98
2022-08-11T17:52:38.808Z,31.92
2022-08-11T17:56:59.172Z,29.53
2022-08-11T18:01:03.168Z,29.27
2022-08-11T18:05:20.156Z,29.39
2022-08-11T18:09:41.805Z,28.02
2022-08-11T18:14:03.589Z,27.28
2022-08-11T18:18:23.884Z,27.01
2022-08-11T18:22:49.147Z,26.87
2022-08-11T18:27:11.082Z,26.71
2022-08-11T18:31:34.582Z,26.47
2022-08-11T18:35:55.966Z,26.10
2022-08-11T18:40:20.259Z,25.87
2022-08-11T18:44:47.522Z,26.08
2022-08-11T18:49:35.493Z,25.79
2022-08-11T18:54:13.469Z,25.77
2022-08-11T18:58:40.331Z,26.02
2022-08-11T19:03:02.183Z,25.95
2022-08-11T19:07:24.473Z,25.73
2022-08-11T19:11:47.250Z,25.49
2022-08-11T19:16:08.327Z,25.49
2022-08-11T19:20:33.434Z,24.81
2022-08-11T19:24:57.369Z,24.93
2022-08-11T19:30:08.040Z,24.81
2022-08-11T19:34:09.998Z,24.62
2022-08-11T19:38:31.767Z,24.46
2022-08-11T19:42:52.093Z,24.35
2022-08-11T19:47:13.412Z,24.20
2022-08-11T19:51:34.308Z,24.17
2022-08-11T19:55:57.222Z,24.03
2022-08-11T20:00:18.338Z,24.04
2022-08-11T20:04:38.740Z,23.79
2022-08-11T20:09:01.706Z,23.66
2022-08-11T20:13:22.064Z,23.64
2022-08-11T20:17:45.247Z,23.47
2022-08-11T20:22:08.832Z,23.46
2022-08-11T20:26:31.479Z,23.39
2022-08-11T20:30:53.516Z,22.94
2022-08-11T20:35:16.453Z,23.01
2022-08-11T20:39:37.485Z,23.14
2022-08-11T20:44:07.657Z,23.12
2022-08-11T20:48:29.770Z,23.10
2022-08-11T20:52:51.216Z,23.04
2022-08-11T20:57:12.762Z,22.67
2022-08-11T21:01:41.367Z,22.71
2022-08-11T21:06:04.822Z,22.55
2022-08-11T21:10:31.628Z,22.09
2022-08-11T21:14:53.537Z,22.16
2022-08-11T21:20:00.764Z,22.20
2022-08-11T21:24:06.477Z,22.20
2022-08-11T21:28:29.260Z,21.36
2022-08-11T21:32:50.608Z,21.49
2022-08-11T21:37:11.738Z,21.24
2022-08-11T21:41:33.524Z,21.18
2022-08-11T21:45:56.829Z,21.63
2022-08-11T21:50:16.810Z,21.19
2022-08-11T21:54:37.537Z,21.19
2022-08-11T21:59:06.869Z,21.22
2022-08-11T22:03:27.853Z,21.28
2022-08-11T22:07:50.737Z,21.27
2022-08-11T22:12:34.035Z,21.21
2022-08-11T22:16:50.899Z,20.97
2022-08-11T22:21:11.184Z,21.25
2022-08-11T22:25:38.705Z,20.71
2022-08-11T22:29:58.529Z,20.93
2022-08-11T22:34:18.733Z,20.80
2022-08-11T22:38:40.649Z,20.72
2022-08-11T22:43:01.811Z,20.35
2022-08-11T22:47:23.603Z,20.54
2022-08-11T22:51:48.403Z,20.41
2022-08-11T22:56:09.334Z,20.05
2022-08-11T23:00:30.432Z,20.56
2022-08-11T23:04:53.119Z,20.74
2022-08-11T23:09:14.901Z,20.57
2022-08-11T23:13:35.218Z,19.84
2022-08-11T23:17:55.591Z,19.67
2022-08-11T23:22:15.961Z,20.12
2022-08-11T23:26:38.813Z,19.50
2022-08-11T23:30:59.036Z,20.06
2022-08-11T23:35:40.493Z,20.14
2022-08-11T23:40:01.348Z,20.00
2022-08-11T23:44:23.402Z,20.03
2022-08-11T23:48:46.896Z,19.91
2022-08-11T23:53:07.739Z,19.99
2022-08-11T23:57:27.954Z,19.95
